sensor_id;sensor_type;location;lat;lon;timestamp;temperature;humidity
18160;DHT22;9205;52.032;4.314;2023-03-15T00:02:11;4.70;99.90
18160;DHT22;9205;52.032;4.314;2023-03-15T00:04:38;4.70;99.90
18160;DHT22;9205;52.032;4.314;2023-03-15T00:07:08;4.70;99.90
18160;DHT22;9205;52.032;4.314;2023-03-15T00:09:35;4.60;99.90
18160;DHT22;9205;52.032;4.314;2023-03-15T00:12:04;4.50;99.90
18160;DHT22;9205;52.032;4.314;2023-03-15T00:14:31;4.50;99.90
18160;DHT22;9205;52.032;4.314;2023-03-15T00:16:59;4.40;99.90
18160;DHT22;9205;52.032;4.314;2023-03-15T00:19:26;4.30;99.90
18160;DHT22;9205;52.032;4.314;2023-03-15T00:21:54;4.60;99.90
18160;DHT22;9205;52.032;4.314;2023-03-15T00:24:23;4.40;99.90
18160;DHT22;9205;52.032;4.314;2023-03-15T00:26:50;4.50;99.90
18160;DHT22;9205;52.032;4.314;2023-03-15T00:29:17;4.40;99.90
18160;DHT22;9205;52.032;4.314;2023-03-15T00:31:45;4.50;99.90
18160;DHT22;9205;52.032;4.314;2023-03-15T00:34:13;4.50;99.90
18160;DHT22;9205;52.032;4.314;2023-03-15T00:36:40;4.30;99.90
18160;DHT22;9205;52.032;4.314;2023-03-15T00:39:08;4.30;99.90
18160;DHT22;9205;52.032;4.314;2023-03-15T00:41:38;4.30;99.90
18160;DHT22;9205;52.032;4.314;2023-03-15T00:44:05;4.30;99.90
18160;DHT22;9205;52.032;4.314;2023-03-15T00:46:33;4.50;99.90
18160;DHT22;9205;52.032;4.314;2023-03-15T00:49:00;4.40;99.90
18160;DHT22;9205;52.032;4.314;2023-03-15T00:51:28;4.40;99.90
18160;DHT22;9205;52.032;4.314;2023-03-15T00:53:55;4.40;99.90
18160;DHT22;9205;52.032;4.314;2023-03-15T00:56:24;4.40;99.90
18160;DHT22;9205;52.032;4.314;2023-03-15T00:58:58;4.20;99.90
18160;DHT22;9205;52.032;4.314;2023-03-15T01:01:27;4.40;99.90
18160;DHT22;9205;52.032;4.314;2023-03-15T01:03:56;4.30;99.90
18160;DHT22;9205;52.032;4.314;2023-03-15T01:06:25;4.30;99.90
18160;DHT22;9205;52.032;4.314;2023-03-15T01:08:54;4.40;99.90
18160;DHT22;9205;52.032;4.314;2023-03-15T01:11:27;4.20;99.90
18160;DHT22;9205;52.032;4.314;2023-03-15T01:13:58;4.40;99.90
18160;DHT22;9205;52.032;4.314;2023-03-15T01:16:26;4.20;99.90
18160;DHT22;9205;52.032;4.314;2023-03-15T01:18:54;4.30;99.90
18160;DHT22;9205;52.032;4.314;2023-03-15T01:21:23;4.50;99.90
18160;DHT22;9205;52.032;4.314;2023-03-15T01:23:50;4.30;99.90
18160;DHT22;9205;52.032;4.314;2023-03-15T01:26:21;4.50;99.90
18160;DHT22;9205;52.032;4.314;2023-03-15T01:28:49;4.50;99.90
18160;DHT22;9205;52.032;4.314;2023-03-15T01:31:21;4.10;99.90
18160;DHT22;9205;52.032;4.314;2023-03-15T01:33:50;4.50;99.90
18160;DHT22;9205;52.032;4.314;2023-03-15T01:36:19;4.40;99.90
18160;DHT22;9205;52.032;4.314;2023-03-15T01:38:47;4.50;99.90
18160;DHT22;9205;52.032;4.314;2023-03-15T01:41:19;4.40;99.90
18160;DHT22;9205;52.032;4.314;2023-03-15T01:43:48;4.20;99.90
18160;DHT22;9205;52.032;4.314;2023-03-15T01:46:28;4.40;99.90
18160;DHT22;9205;52.032;4.314;2023-03-15T01:49:10;4.30;99.90
18160;DHT22;9205;52.032;4.314;2023-03-15T01:51:44;4.30;99.90
18160;DHT22;9205;52.032;4.314;2023-03-15T01:54:19;4.50;99.90
18160;DHT22;9205;52.032;4.314;2023-03-15T01:56:56;4.60;99.90
18160;DHT22;9205;52.032;4.314;2023-03-15T01:59:30;4.50;99.90
18160;DHT22;9205;52.032;4.314;2023-03-15T02:02:04;4.60;99.90
18160;DHT22;9205;52.032;4.314;2023-03-15T02:04:34;4.40;99.90
18160;DHT22;9205;52.032;4.314;2023-03-15T02:07:07;4.50;99.90
18160;DHT22;9205;52.032;4.314;2023-03-15T02:09:43;4.50;99.90
18160;DHT22;9205;52.032;4.314;2023-03-15T02:12:17;4.70;99.90
18160;DHT22;9205;52.032;4.314;2023-03-15T02:14:48;4.70;99.90
18160;DHT22;9205;52.032;4.314;2023-03-15T02:17:27;4.50;99.90
18160;DHT22;9205;52.032;4.314;2023-03-15T02:20:06;4.70;99.90
18160;DHT22;9205;52.032;4.314;2023-03-15T02:22:48;4.70;99.90
18160;DHT22;9205;52.032;4.314;2023-03-15T02:25:28;4.50;99.90
18160;DHT22;9205;52.032;4.314;2023-03-15T02:28:05;4.40;97.10
18160;DHT22;9205;52.032;4.314;2023-03-15T02:30:36;4.40;88.00
18160;DHT22;9205;52.032;4.314;2023-03-15T02:33:07;4.60;64.30
18160;DHT22;9205;52.032;4.314;2023-03-15T02:35:43;4.40;25.20
18160;DHT22;9205;52.032;4.314;2023-03-15T02:38:11;4.50;6.10
18160;DHT22;9205;52.032;4.314;2023-03-15T02:40:39;4.50;5.70
18160;DHT22;9205;52.032;4.314;2023-03-15T02:43:11;4.50;1.00
18160;DHT22;9205;52.032;4.314;2023-03-15T02:45:41;4.50;1.00
18160;DHT22;9205;52.032;4.314;2023-03-15T02:48:10;4.50;1.00
18160;DHT22;9205;52.032;4.314;2023-03-15T02:50:38;4.40;1.00
18160;DHT22;9205;52.032;4.314;2023-03-15T02:53:07;4.40;1.00
18160;DHT22;9205;52.032;4.314;2023-03-15T02:55:37;4.40;1.00
18160;DHT22;9205;52.032;4.314;2023-03-15T02:58:05;4.30;1.00
18160;DHT22;9205;52.032;4.314;2023-03-15T03:00:35;4.30;1.00
18160;DHT22;9205;52.032;4.314;2023-03-15T03:03:03;4.40;1.00
18160;DHT22;9205;52.032;4.314;2023-03-15T03:05:31;4.40;1.00
18160;DHT22;9205;52.032;4.314;2023-03-15T03:07:58;4.30;1.00
18160;DHT22;9205;52.032;4.314;2023-03-15T03:10:28;4.30;1.00
18160;DHT22;9205;52.032;4.314;2023-03-15T03:12:57;4.40;1.00
18160;DHT22;9205;52.032;4.314;2023-03-15T03:15:37;4.30;1.00
18160;DHT22;9205;52.032;4.314;2023-03-15T03:18:05;4.20;1.00
18160;DHT22;9205;52.032;4.314;2023-03-15T03:20:32;4.20;1.00
18160;DHT22;9205;52.032;4.314;2023-03-15T03:23:00;4.10;1.00
18160;DHT22;9205;52.032;4.314;2023-03-15T03:25:31;4.20;1.00
18160;DHT22;9205;52.032;4.314;2023-03-15T03:27:58;4.20;1.00
18160;DHT22;9205;52.032;4.314;2023-03-15T03:30:29;4.30;1.00
18160;DHT22;9205;52.032;4.314;2023-03-15T03:32:58;4.10;1.00
18160;DHT22;9205;52.032;4.314;2023-03-15T03:35:26;4.20;1.00
18160;DHT22;9205;52.032;4.314;2023-03-15T03:37:54;4.30;1.00
18160;DHT22;9205;52.032;4.314;2023-03-15T03:40:27;4.30;1.00
18160;DHT22;9205;52.032;4.314;2023-03-15T03:42:55;4.30;1.00
18160;DHT22;9205;52.032;4.314;2023-03-15T03:45:23;4.20;1.00
18160;DHT22;9205;52.032;4.314;2023-03-15T03:47:54;4.30;1.00
18160;DHT22;9205;52.032;4.314;2023-03-15T03:50:23;4.20;1.00
18160;DHT22;9205;52.032;4.314;2023-03-15T03:52:52;4.10;1.00
18160;DHT22;9205;52.032;4.314;2023-03-15T03:55:24;4.30;1.00
18160;DHT22;9205;52.032;4.314;2023-03-15T03:57:53;4.30;1.00
18160;DHT22;9205;52.032;4.314;2023-03-15T04:00:37;4.30;1.00
18160;DHT22;9205;52.032;4.314;2023-03-15T04:03:07;4.10;1.00
18160;DHT22;9205;52.032;4.314;2023-03-15T04:05:38;4.20;1.00
18160;DHT22;9205;52.032;4.314;2023-03-15T04:08:06;4.10;1.00
18160;DHT22;9205;52.032;4.314;2023-03-15T04:10:38;4.00;1.00
18160;DHT22;9205;52.032;4.314;2023-03-15T04:13:06;3.90;1.00
18160;DHT22;9205;52.032;4.314;2023-03-15T04:15:34;4.10;1.00
18160;DHT22;9205;52.032;4.314;2023-03-15T04:18:06;4.10;1.00
18160;DHT22;9205;52.032;4.314;2023-03-15T04:20:40;3.90;1.00
18160;DHT22;9205;52.032;4.314;2023-03-15T04:23:12;4.00;1.00
18160;DHT22;9205;52.032;4.314;2023-03-15T04:25:52;4.20;1.00
18160;DHT22;9205;52.032;4.314;2023-03-15T04:28:35;4.00;8.30
18160;DHT22;9205;52.032;4.314;2023-03-15T04:31:27;3.90;8.80
18160;DHT22;9205;52.032;4.314;2023-03-15T04:34:25;3.80;36.80
18160;DHT22;9205;52.032;4.314;2023-03-15T04:37:16;3.90;59.30
18160;DHT22;9205;52.032;4.314;2023-03-15T04:40:01;3.70;72.30
18160;DHT22;9205;52.032;4.314;2023-03-15T04:42:54;4.00;95.40
18160;DHT22;9205;52.032;4.314;2023-03-15T04:45:33;3.90;99.90
18160;DHT22;9205;52.032;4.314;2023-03-15T04:48:24;3.80;99.90
18160;DHT22;9205;52.032;4.314;2023-03-15T04:51:11;4.00;99.90
18160;DHT22;9205;52.032;4.314;2023-03-15T04:53:59;3.70;99.90
18160;DHT22;9205;52.032;4.314;2023-03-15T04:56:50;3.70;99.90
18160;DHT22;9205;52.032;4.314;2023-03-15T04:59:47;3.90;99.90
18160;DHT22;9205;52.032;4.314;2023-03-15T05:02:36;3.70;99.90
18160;DHT22;9205;52.032;4.314;2023-03-15T05:05:12;3.60;99.90
18160;DHT22;9205;52.032;4.314;2023-03-15T05:08:04;3.80;99.90
18160;DHT22;9205;52.032;4.314;2023-03-15T05:10:45;3.70;99.90
18160;DHT22;9205;52.032;4.314;2023-03-15T05:13:25;3.50;99.90
18160;DHT22;9205;52.032;4.314;2023-03-15T05:16:04;3.60;99.90
18160;DHT22;9205;52.032;4.314;2023-03-15T05:18:41;3.70;99.90
18160;DHT22;9205;52.032;4.314;2023-03-15T05:21:12;3.40;99.90
18160;DHT22;9205;52.032;4.314;2023-03-15T05:23:58;3.50;99.90
18160;DHT22;9205;52.032;4.314;2023-03-15T05:26:35;3.40;99.90
18160;DHT22;9205;52.032;4.314;2023-03-15T05:29:22;3.30;99.90
18160;DHT22;9205;52.032;4.314;2023-03-15T05:31:59;3.40;99.90
18160;DHT22;9205;52.032;4.314;2023-03-15T05:34:51;3.30;99.90
18160;DHT22;9205;52.032;4.314;2023-03-15T05:37:38;3.20;99.90
18160;DHT22;9205;52.032;4.314;2023-03-15T05:40:25;3.30;99.90
18160;DHT22;9205;52.032;4.314;2023-03-15T05:43:08;3.40;99.90
18160;DHT22;9205;52.032;4.314;2023-03-15T05:45:51;3.30;99.90
18160;DHT22;9205;52.032;4.314;2023-03-15T05:48:36;3.30;99.90
18160;DHT22;9205;52.032;4.314;2023-03-15T05:51:36;3.60;99.90
18160;DHT22;9205;52.032;4.314;2023-03-15T05:54:32;3.50;99.90
18160;DHT22;9205;52.032;4.314;2023-03-15T05:57:22;3.60;99.90
18160;DHT22;9205;52.032;4.314;2023-03-15T06:00:16;3.60;99.90
18160;DHT22;9205;52.032;4.314;2023-03-15T06:02:50;3.30;99.90
18160;DHT22;9205;52.032;4.314;2023-03-15T06:05:42;3.50;99.90
18160;DHT22;9205;52.032;4.314;2023-03-15T06:08:15;3.10;99.90
18160;DHT22;9205;52.032;4.314;2023-03-15T06:10:46;3.20;99.90
18160;DHT22;9205;52.032;4.314;2023-03-15T06:13:16;3.50;99.90
18160;DHT22;9205;52.032;4.314;2023-03-15T06:15:48;3.40;99.90
18160;DHT22;9205;52.032;4.314;2023-03-15T06:18:18;3.00;99.90
18160;DHT22;9205;52.032;4.314;2023-03-15T06:20:49;3.30;99.90
18160;DHT22;9205;52.032;4.314;2023-03-15T06:23:18;3.30;99.90
18160;DHT22;9205;52.032;4.314;2023-03-15T06:25:46;3.30;99.90
18160;DHT22;9205;52.032;4.314;2023-03-15T06:28:17;3.20;99.90
18160;DHT22;9205;52.032;4.314;2023-03-15T06:30:52;3.20;99.90
18160;DHT22;9205;52.032;4.314;2023-03-15T06:33:25;3.00;99.90
18160;DHT22;9205;52.032;4.314;2023-03-15T06:35:53;3.20;99.90
18160;DHT22;9205;52.032;4.314;2023-03-15T06:38:21;3.20;99.90
18160;DHT22;9205;52.032;4.314;2023-03-15T06:40:51;3.10;99.90
18160;DHT22;9205;52.032;4.314;2023-03-15T06:43:20;3.00;99.90
18160;DHT22;9205;52.032;4.314;2023-03-15T06:45:48;3.30;99.90
18160;DHT22;9205;52.032;4.314;2023-03-15T06:48:21;3.30;99.90
18160;DHT22;9205;52.032;4.314;2023-03-15T06:50:49;3.10;99.90
18160;DHT22;9205;52.032;4.314;2023-03-15T06:53:19;3.30;99.90
18160;DHT22;9205;52.032;4.314;2023-03-15T06:55:47;3.30;99.90
18160;DHT22;9205;52.032;4.314;2023-03-15T06:58:17;3.30;99.90
18160;DHT22;9205;52.032;4.314;2023-03-15T07:00:44;3.40;99.90
18160;DHT22;9205;52.032;4.314;2023-03-15T07:03:13;3.40;99.90
18160;DHT22;9205;52.032;4.314;2023-03-15T07:05:42;3.20;99.90
18160;DHT22;9205;52.032;4.314;2023-03-15T07:08:17;3.60;99.90
18160;DHT22;9205;52.032;4.314;2023-03-15T07:10:45;3.30;99.90
18160;DHT22;9205;52.032;4.314;2023-03-15T07:13:13;3.60;99.90
18160;DHT22;9205;52.032;4.314;2023-03-15T07:15:41;3.70;99.90
18160;DHT22;9205;52.032;4.314;2023-03-15T07:18:09;3.70;99.90
18160;DHT22;9205;52.032;4.314;2023-03-15T07:20:36;3.60;99.90
18160;DHT22;9205;52.032;4.314;2023-03-15T07:23:05;3.50;99.90
18160;DHT22;9205;52.032;4.314;2023-03-15T07:25:33;3.50;99.90
18160;DHT22;9205;52.032;4.314;2023-03-15T07:28:00;3.80;99.90
18160;DHT22;9205;52.032;4.314;2023-03-15T07:30:28;3.60;99.90
18160;DHT22;9205;52.032;4.314;2023-03-15T07:32:55;3.70;99.90
18160;DHT22;9205;52.032;4.314;2023-03-15T07:35:22;3.80;99.90
18160;DHT22;9205;52.032;4.314;2023-03-15T07:37:50;3.90;99.90
18160;DHT22;9205;52.032;4.314;2023-03-15T07:40:21;3.70;99.90
18160;DHT22;9205;52.032;4.314;2023-03-15T07:42:51;3.70;99.90
18160;DHT22;9205;52.032;4.314;2023-03-15T07:45:18;3.70;99.90
18160;DHT22;9205;52.032;4.314;2023-03-15T07:47:46;3.80;99.90
18160;DHT22;9205;52.032;4.314;2023-03-15T07:50:13;3.90;99.90
18160;DHT22;9205;52.032;4.314;2023-03-15T07:52:42;3.90;99.90
18160;DHT22;9205;52.032;4.314;2023-03-15T07:55:10;3.90;99.90
18160;DHT22;9205;52.032;4.314;2023-03-15T07:57:50;4.10;99.90
18160;DHT22;9205;52.032;4.314;2023-03-15T08:00:19;4.10;99.90
18160;DHT22;9205;52.032;4.314;2023-03-15T08:02:47;4.30;99.90
18160;DHT22;9205;52.032;4.314;2023-03-15T08:05:16;4.10;99.90
18160;DHT22;9205;52.032;4.314;2023-03-15T08:07:52;4.30;99.90
18160;DHT22;9205;52.032;4.314;2023-03-15T08:10:21;4.10;99.90
18160;DHT22;9205;52.032;4.314;2023-03-15T08:13:02;4.40;99.90
18160;DHT22;9205;52.032;4.314;2023-03-15T08:16:08;4.30;99.90
18160;DHT22;9205;52.032;4.314;2023-03-15T08:18:38;4.40;99.90
18160;DHT22;9205;52.032;4.314;2023-03-15T08:21:31;4.50;99.90
18160;DHT22;9205;52.032;4.314;2023-03-15T08:24:12;4.60;99.90
18160;DHT22;9205;52.032;4.314;2023-03-15T08:26:43;4.80;99.90
18160;DHT22;9205;52.032;4.314;2023-03-15T08:29:16;4.80;99.90
18160;DHT22;9205;52.032;4.314;2023-03-15T08:31:45;4.90;99.90
18160;DHT22;9205;52.032;4.314;2023-03-15T08:34:16;5.00;99.90
18160;DHT22;9205;52.032;4.314;2023-03-15T08:36:45;5.30;94.80
18160;DHT22;9205;52.032;4.314;2023-03-15T08:39:13;5.40;87.00
18160;DHT22;9205;52.032;4.314;2023-03-15T08:41:43;5.40;41.50
18160;DHT22;9205;52.032;4.314;2023-03-15T08:44:18;5.30;1.00
18160;DHT22;9205;52.032;4.314;2023-03-15T08:46:46;5.40;1.00
18160;DHT22;9205;52.032;4.314;2023-03-15T08:49:14;5.50;1.00
18160;DHT22;9205;52.032;4.314;2023-03-15T08:51:41;5.50;1.00
18160;DHT22;9205;52.032;4.314;2023-03-15T08:54:09;5.60;1.00
18160;DHT22;9205;52.032;4.314;2023-03-15T08:56:38;5.70;1.00
18160;DHT22;9205;52.032;4.314;2023-03-15T08:59:13;5.80;1.00
18160;DHT22;9205;52.032;4.314;2023-03-15T09:01:43;5.70;1.00
18160;DHT22;9205;52.032;4.314;2023-03-15T09:04:10;5.70;1.00
18160;DHT22;9205;52.032;4.314;2023-03-15T09:06:38;5.70;1.00
18160;DHT22;9205;52.032;4.314;2023-03-15T09:09:10;5.60;1.00
18160;DHT22;9205;52.032;4.314;2023-03-15T09:11:42;5.80;1.00
18160;DHT22;9205;52.032;4.314;2023-03-15T09:14:10;5.90;1.00
18160;DHT22;9205;52.032;4.314;2023-03-15T09:16:38;5.80;1.00
18160;DHT22;9205;52.032;4.314;2023-03-15T09:19:09;5.70;1.00
18160;DHT22;9205;52.032;4.314;2023-03-15T09:21:36;5.70;1.00
18160;DHT22;9205;52.032;4.314;2023-03-15T09:24:14;5.70;1.00
18160;DHT22;9205;52.032;4.314;2023-03-15T09:26:44;5.60;1.00
18160;DHT22;9205;52.032;4.314;2023-03-15T09:29:11;5.80;1.00
18160;DHT22;9205;52.032;4.314;2023-03-15T09:31:39;5.80;1.00
18160;DHT22;9205;52.032;4.314;2023-03-15T09:34:08;5.90;1.00
18160;DHT22;9205;52.032;4.314;2023-03-15T09:36:36;6.10;99.90
18160;DHT22;9205;52.032;4.314;2023-03-15T09:39:04;6.00;99.90
18160;DHT22;9205;52.032;4.314;2023-03-15T09:41:39;6.10;1.00
18160;DHT22;9205;52.032;4.314;2023-03-15T09:44:24;6.30;1.00
18160;DHT22;9205;52.032;4.314;2023-03-15T09:47:10;6.30;1.00
18160;DHT22;9205;52.032;4.314;2023-03-15T09:49:51;6.30;1.00
18160;DHT22;9205;52.032;4.314;2023-03-15T09:52:31;6.40;29.50
18160;DHT22;9205;52.032;4.314;2023-03-15T09:55:09;6.40;99.90
18160;DHT22;9205;52.032;4.314;2023-03-15T09:57:44;6.40;1.00
18160;DHT22;9205;52.032;4.314;2023-03-15T10:00:19;6.40;1.00
18160;DHT22;9205;52.032;4.314;2023-03-15T10:02:54;6.40;99.90
18160;DHT22;9205;52.032;4.314;2023-03-15T10:05:36;6.50;1.00
18160;DHT22;9205;52.032;4.314;2023-03-15T10:08:11;6.50;1.00
18160;DHT22;9205;52.032;4.314;2023-03-15T10:10:48;6.60;1.00
18160;DHT22;9205;52.032;4.314;2023-03-15T10:13:30;6.70;99.90
18160;DHT22;9205;52.032;4.314;2023-03-15T10:16:21;6.80;99.90
18160;DHT22;9205;52.032;4.314;2023-03-15T10:19:04;6.80;99.90
18160;DHT22;9205;52.032;4.314;2023-03-15T10:21:56;6.70;1.00
18160;DHT22;9205;52.032;4.314;2023-03-15T10:24:33;6.80;1.00
18160;DHT22;9205;52.032;4.314;2023-03-15T10:27:14;6.80;44.30
18160;DHT22;9205;52.032;4.314;2023-03-15T10:29:47;6.90;1.00
18160;DHT22;9205;52.032;4.314;2023-03-15T10:32:17;7.00;1.00
18160;DHT22;9205;52.032;4.314;2023-03-15T10:34:49;6.90;1.00
18160;DHT22;9205;52.032;4.314;2023-03-15T10:37:22;6.90;1.00
18160;DHT22;9205;52.032;4.314;2023-03-15T10:39:54;7.00;1.00
18160;DHT22;9205;52.032;4.314;2023-03-15T10:42:26;7.10;99.90
18160;DHT22;9205;52.032;4.314;2023-03-15T10:44:57;7.20;99.90
18160;DHT22;9205;52.032;4.314;2023-03-15T10:47:26;7.10;99.90
18160;DHT22;9205;52.032;4.314;2023-03-15T10:49:57;7.20;99.90
18160;DHT22;9205;52.032;4.314;2023-03-15T10:52:33;7.30;99.90
18160;DHT22;9205;52.032;4.314;2023-03-15T10:55:05;7.30;99.90
18160;DHT22;9205;52.032;4.314;2023-03-15T10:57:38;7.40;10.00
18160;DHT22;9205;52.032;4.314;2023-03-15T11:00:28;7.50;1.00
18160;DHT22;9205;52.032;4.314;2023-03-15T11:03:01;7.60;1.00
18160;DHT22;9205;52.032;4.314;2023-03-15T11:05:39;7.70;1.00
18160;DHT22;9205;52.032;4.314;2023-03-15T11:08:13;7.80;1.00
18160;DHT22;9205;52.032;4.314;2023-03-15T11:10:43;7.80;1.00
18160;DHT22;9205;52.032;4.314;2023-03-15T11:13:17;7.90;1.00
18160;DHT22;9205;52.032;4.314;2023-03-15T11:15:54;8.00;1.00
18160;DHT22;9205;52.032;4.314;2023-03-15T11:18:29;7.90;1.00
18160;DHT22;9205;52.032;4.314;2023-03-15T11:21:01;7.90;1.00
18160;DHT22;9205;52.032;4.314;2023-03-15T11:23:35;7.90;1.00
18160;DHT22;9205;52.032;4.314;2023-03-15T11:26:14;8.10;1.00
18160;DHT22;9205;52.032;4.314;2023-03-15T11:28:50;8.10;1.00
18160;DHT22;9205;52.032;4.314;2023-03-15T11:31:19;8.20;1.00
18160;DHT22;9205;52.032;4.314;2023-03-15T11:33:52;8.20;1.00
18160;DHT22;9205;52.032;4.314;2023-03-15T11:36:27;8.40;1.00
18160;DHT22;9205;52.032;4.314;2023-03-15T11:38:59;8.60;1.00
18160;DHT22;9205;52.032;4.314;2023-03-15T11:41:33;8.60;1.00
18160;DHT22;9205;52.032;4.314;2023-03-15T11:44:24;8.70;1.00
18160;DHT22;9205;52.032;4.314;2023-03-15T11:47:04;8.70;99.90
18160;DHT22;9205;52.032;4.314;2023-03-15T11:49:44;8.80;99.90
18160;DHT22;9205;52.032;4.314;2023-03-15T11:52:15;8.80;99.90
18160;DHT22;9205;52.032;4.314;2023-03-15T11:54:45;8.80;1.00
18160;DHT22;9205;52.032;4.314;2023-03-15T11:57:42;9.00;1.00
18160;DHT22;9205;52.032;4.314;2023-03-15T12:03:33;9.10;99.90
18160;DHT22;9205;52.032;4.314;2023-03-15T12:06:10;9.20;99.90
18160;DHT22;9205;52.032;4.314;2023-03-15T12:09:00;9.20;99.90
18160;DHT22;9205;52.032;4.314;2023-03-15T12:11:47;9.40;99.90
18160;DHT22;9205;52.032;4.314;2023-03-15T12:14:28;9.40;99.90
18160;DHT22;9205;52.032;4.314;2023-03-15T12:17:35;9.30;94.40
18160;DHT22;9205;52.032;4.314;2023-03-15T12:20:17;9.30;99.90
18160;DHT22;9205;52.032;4.314;2023-03-15T12:23:18;9.30;99.90
18160;DHT22;9205;52.032;4.314;2023-03-15T12:25:56;9.20;24.10
18160;DHT22;9205;52.032;4.314;2023-03-15T12:28:29;9.30;24.50
18160;DHT22;9205;52.032;4.314;2023-03-15T12:31:03;9.30;76.90
18160;DHT22;9205;52.032;4.314;2023-03-15T12:33:43;9.30;1.00
18160;DHT22;9205;52.032;4.314;2023-03-15T12:36:25;9.30;1.00
18160;DHT22;9205;52.032;4.314;2023-03-15T12:39:01;9.30;1.00
18160;DHT22;9205;52.032;4.314;2023-03-15T12:41:47;9.40;7.40
18160;DHT22;9205;52.032;4.314;2023-03-15T12:44:24;9.50;1.00
18160;DHT22;9205;52.032;4.314;2023-03-15T12:47:03;9.50;1.00
18160;DHT22;9205;52.032;4.314;2023-03-15T12:49:41;9.40;1.00
18160;DHT22;9205;52.032;4.314;2023-03-15T12:55:17;9.10;1.00
18160;DHT22;9205;52.032;4.314;2023-03-15T12:57:47;9.10;1.00
18160;DHT22;9205;52.032;4.314;2023-03-15T13:00:20;9.20;1.00
18160;DHT22;9205;52.032;4.314;2023-03-15T13:02:57;9.30;1.00
18160;DHT22;9205;52.032;4.314;2023-03-15T13:05:33;9.20;1.00
18160;DHT22;9205;52.032;4.314;2023-03-15T13:08:18;9.30;1.00
18160;DHT22;9205;52.032;4.314;2023-03-15T13:11:06;9.30;1.00
18160;DHT22;9205;52.032;4.314;2023-03-15T13:16:53;9.20;1.00
18160;DHT22;9205;52.032;4.314;2023-03-15T13:19:26;9.20;1.00
18160;DHT22;9205;52.032;4.314;2023-03-15T13:22:05;9.20;1.00
18160;DHT22;9205;52.032;4.314;2023-03-15T13:24:50;9.30;1.00
18160;DHT22;9205;52.032;4.314;2023-03-15T13:27:40;9.50;1.00
18160;DHT22;9205;52.032;4.314;2023-03-15T13:30:32;9.50;1.00
18160;DHT22;9205;52.032;4.314;2023-03-15T13:33:11;9.50;1.00
18160;DHT22;9205;52.032;4.314;2023-03-15T13:35:47;9.30;1.00
18160;DHT22;9205;52.032;4.314;2023-03-15T13:38:26;9.40;1.00
18160;DHT22;9205;52.032;4.314;2023-03-15T13:40:58;9.40;1.00
18160;DHT22;9205;52.032;4.314;2023-03-15T13:43:31;9.40;1.00
18160;DHT22;9205;52.032;4.314;2023-03-15T13:46:00;9.30;1.00
18160;DHT22;9205;52.032;4.314;2023-03-15T13:48:32;9.20;1.00
18160;DHT22;9205;52.032;4.314;2023-03-15T13:51:06;9.40;1.00
18160;DHT22;9205;52.032;4.314;2023-03-15T13:53:50;9.50;1.00
18160;DHT22;9205;52.032;4.314;2023-03-15T13:56:27;9.40;1.00
18160;DHT22;9205;52.032;4.314;2023-03-15T13:58:59;9.50;1.00
18160;DHT22;9205;52.032;4.314;2023-03-15T14:01:29;9.20;1.00
18160;DHT22;9205;52.032;4.314;2023-03-15T14:04:05;9.20;1.00
18160;DHT22;9205;52.032;4.314;2023-03-15T14:06:35;9.40;1.00
18160;DHT22;9205;52.032;4.314;2023-03-15T14:09:09;9.30;1.00
18160;DHT22;9205;52.032;4.314;2023-03-15T14:11:46;9.30;1.00
18160;DHT22;9205;52.032;4.314;2023-03-15T14:14:29;9.30;1.00
18160;DHT22;9205;52.032;4.314;2023-03-15T14:16:58;9.30;1.00
18160;DHT22;9205;52.032;4.314;2023-03-15T14:19:29;9.40;1.00
18160;DHT22;9205;52.032;4.314;2023-03-15T14:22:01;9.20;1.00
18160;DHT22;9205;52.032;4.314;2023-03-15T14:24:35;9.10;1.00
18160;DHT22;9205;52.032;4.314;2023-03-15T14:27:07;9.10;1.00
18160;DHT22;9205;52.032;4.314;2023-03-15T14:29:45;9.10;1.00
18160;DHT22;9205;52.032;4.314;2023-03-15T14:32:26;9.00;1.00
18160;DHT22;9205;52.032;4.314;2023-03-15T14:35:00;9.10;1.00
18160;DHT22;9205;52.032;4.314;2023-03-15T14:37:35;9.20;1.00
18160;DHT22;9205;52.032;4.314;2023-03-15T14:40:09;9.30;1.00
18160;DHT22;9205;52.032;4.314;2023-03-15T14:42:41;9.20;1.00
18160;DHT22;9205;52.032;4.314;2023-03-15T14:45:09;9.10;1.00
18160;DHT22;9205;52.032;4.314;2023-03-15T14:47:41;9.00;1.00
18160;DHT22;9205;52.032;4.314;2023-03-15T14:50:14;9.10;1.00
18160;DHT22;9205;52.032;4.314;2023-03-15T14:52:47;9.10;1.00
18160;DHT22;9205;52.032;4.314;2023-03-15T14:55:18;8.90;1.00
18160;DHT22;9205;52.032;4.314;2023-03-15T14:57:48;9.00;1.00
18160;DHT22;9205;52.032;4.314;2023-03-15T15:00:17;8.90;1.00
18160;DHT22;9205;52.032;4.314;2023-03-15T15:02:47;8.90;1.00
18160;DHT22;9205;52.032;4.314;2023-03-15T15:05:22;8.90;1.00
18160;DHT22;9205;52.032;4.314;2023-03-15T15:07:55;8.90;1.00
18160;DHT22;9205;52.032;4.314;2023-03-15T15:10:29;8.90;1.00
18160;DHT22;9205;52.032;4.314;2023-03-15T15:12:59;8.90;1.00
18160;DHT22;9205;52.032;4.314;2023-03-15T15:15:27;8.80;1.00
18160;DHT22;9205;52.032;4.314;2023-03-15T15:17:55;8.80;1.00
18160;DHT22;9205;52.032;4.314;2023-03-15T15:20:24;8.80;1.00
18160;DHT22;9205;52.032;4.314;2023-03-15T15:22:52;8.80;1.00
18160;DHT22;9205;52.032;4.314;2023-03-15T15:25:21;8.70;1.00
18160;DHT22;9205;52.032;4.314;2023-03-15T15:27:50;8.80;1.00
18160;DHT22;9205;52.032;4.314;2023-03-15T15:30:20;8.70;1.00
18160;DHT22;9205;52.032;4.314;2023-03-15T15:32:50;8.70;1.00
18160;DHT22;9205;52.032;4.314;2023-03-15T15:35:24;8.60;1.00
18160;DHT22;9205;52.032;4.314;2023-03-15T15:37:56;8.60;1.00
18160;DHT22;9205;52.032;4.314;2023-03-15T15:40:30;8.60;1.00
18160;DHT22;9205;52.032;4.314;2023-03-15T15:42:59;8.70;1.00
18160;DHT22;9205;52.032;4.314;2023-03-15T15:45:28;8.70;1.00
18160;DHT22;9205;52.032;4.314;2023-03-15T15:47:59;8.70;1.00
18160;DHT22;9205;52.032;4.314;2023-03-15T15:50:33;8.70;1.00
18160;DHT22;9205;52.032;4.314;2023-03-15T15:53:04;8.80;1.00
18160;DHT22;9205;52.032;4.314;2023-03-15T15:55:34;8.80;1.00
18160;DHT22;9205;52.032;4.314;2023-03-15T15:58:04;8.80;1.00
18160;DHT22;9205;52.032;4.314;2023-03-15T16:00:33;8.70;1.00
18160;DHT22;9205;52.032;4.314;2023-03-15T16:03:06;8.70;1.00
18160;DHT22;9205;52.032;4.314;2023-03-15T16:05:41;8.70;1.00
18160;DHT22;9205;52.032;4.314;2023-03-15T16:08:20;8.70;1.00
18160;DHT22;9205;52.032;4.314;2023-03-15T16:10:48;8.70;1.00
18160;DHT22;9205;52.032;4.314;2023-03-15T16:13:16;8.70;1.00
18160;DHT22;9205;52.032;4.314;2023-03-15T16:15:44;8.60;1.00
18160;DHT22;9205;52.032;4.314;2023-03-15T16:18:13;8.60;1.00
18160;DHT22;9205;52.032;4.314;2023-03-15T16:20:49;8.50;1.00
18160;DHT22;9205;52.032;4.314;2023-03-15T16:23:21;8.50;1.00
18160;DHT22;9205;52.032;4.314;2023-03-15T16:25:53;8.50;1.00
18160;DHT22;9205;52.032;4.314;2023-03-15T16:28:22;8.50;1.00
18160;DHT22;9205;52.032;4.314;2023-03-15T16:30:50;8.40;1.00
18160;DHT22;9205;52.032;4.314;2023-03-15T16:33:22;8.40;1.00
18160;DHT22;9205;52.032;4.314;2023-03-15T16:36:00;8.50;1.00
18160;DHT22;9205;52.032;4.314;2023-03-15T16:38:30;8.40;1.00
18160;DHT22;9205;52.032;4.314;2023-03-15T16:40:59;8.40;1.00
18160;DHT22;9205;52.032;4.314;2023-03-15T16:43:27;8.40;1.00
18160;DHT22;9205;52.032;4.314;2023-03-15T16:45:55;8.30;1.00
18160;DHT22;9205;52.032;4.314;2023-03-15T16:48:23;8.20;1.00
18160;DHT22;9205;52.032;4.314;2023-03-15T16:50:53;8.20;1.00
18160;DHT22;9205;52.032;4.314;2023-03-15T16:53:23;8.20;1.00
18160;DHT22;9205;52.032;4.314;2023-03-15T16:55:51;8.20;1.00
18160;DHT22;9205;52.032;4.314;2023-03-15T16:58:19;8.10;1.00
18160;DHT22;9205;52.032;4.314;2023-03-15T17:00:47;8.10;1.00
18160;DHT22;9205;52.032;4.314;2023-03-15T17:03:16;8.20;1.00